Time;durP1;ratioP1;P1;durP2;ratioP2;P2;SDS_P1;SDS_P2;PMS_P1;PMS_P2;Temp;Humidity;BMP_temperature;BMP_pressure;BME280_temperature;BME280_humidity;BME280_pressure;Samples;Min_cycle;Max_cycle;Signal;HPM_P1;HPM_P2
2021/04/02 00:00:49;;;;;;;8.23;2.50;;;;;;;;;;4331104;33;20127;-68
2021/04/02 00:03:22;;;;;;;12.13;2.70;;;;;;;;;;4330548;33;20132;-67
2021/04/02 00:05:48;;;;;;;6.00;2.33;;;;;;;;;;4330879;33;20541;-67
2021/04/02 00:08:13;;;;;;;8.43;2.20;;;;;;;;;;4330872;33;20228;-68
2021/04/02 00:10:58;;;;;;;9.40;2.37;;;;;;;;;;4332426;33;20129;-67
2021/04/02 00:13:25;;;;;;;9.83;2.40;;;;;;;;;;4331701;33;20171;-67
2021/04/02 00:15:50;;;;;;;6.97;2.10;;;;;;;;;;4332212;33;20182;-69
2021/04/02 00:18:19;;;;;;;6.57;2.27;;;;;;;;;;4332296;33;20132;-66
2021/04/02 00:20:44;;;;;;;5.37;2.40;;;;;;;;;;4331961;33;20549;-67
2021/04/02 00:23:09;;;;;;;5.90;2.10;;;;;;;;;;4331767;33;20163;-68
2021/04/02 00:25:35;;;;;;;7.90;2.67;;;;;;;;;;4331847;33;20202;-67
2021/04/02 00:28:00;;;;;;;6.33;2.40;;;;;;;;;;4331079;33;20135;-67
2021/04/02 00:30:33;;;;;;;7.30;2.50;;;;;;;;;;4330456;33;20202;-68
2021/04/02 00:32:58;;;;;;;8.97;3.00;;;;;;;;;;4329279;33;20257;-68
2021/04/02 00:35:23;;;;;;;8.50;2.30;;;;;;;;;;4330457;33;20140;-68
2021/04/02 00:37:48;;;;;;;7.20;2.50;;;;;;;;;;4331634;33;20137;-68
2021/04/02 00:40:21;;;;;;;6.50;2.53;;;;;;;;;;4335091;33;20170;-68
2021/04/02 00:42:46;;;;;;;7.10;2.23;;;;;;;;;;4332145;33;20260;-67
2021/04/02 00:45:12;;;;;;;5.40;2.80;;;;;;;;;;4334118;33;20618;-67
2021/04/02 00:47:37;;;;;;;6.50;2.33;;;;;;;;;;4335071;33;20501;-68
2021/04/02 00:50:06;;;;;;;6.65;2.10;;;;;;;;;;4332979;33;20128;-67
2021/04/02 00:52:31;;;;;;;6.43;2.47;;;;;;;;;;4332961;33;20140;-67
2021/04/02 00:54:57;;;;;;;8.83;2.57;;;;;;;;;;4334643;33;20206;-67
2021/04/02 00:57:22;;;;;;;6.65;2.20;;;;;;;;;;4334721;33;20505;-68
2021/04/02 00:59:47;;;;;;;6.50;2.37;;;;;;;;;;4333285;33;20242;-68
2021/04/02 01:02:12;;;;;;;9.90;2.50;;;;;;;;;;4334305;33;20128;-66
2021/04/02 01:04:37;;;;;;;8.03;2.27;;;;;;;;;;4331754;33;20577;-67
2021/04/02 01:07:03;;;;;;;5.23;2.43;;;;;;;;;;4334461;33;20183;-67
2021/04/02 01:09:28;;;;;;;6.43;2.43;;;;;;;;;;4334244;33;20575;-67
2021/04/02 01:11:53;;;;;;;8.87;2.33;;;;;;;;;;4332826;33;20187;-69
2021/04/02 01:14:19;;;;;;;6.37;2.20;;;;;;;;;;4334283;33;20290;-67
2021/04/02 01:16:44;;;;;;;5.33;2.20;;;;;;;;;;4334223;33;20611;-67
2021/04/02 01:19:13;;;;;;;7.33;2.77;;;;;;;;;;4333403;33;20604;-67
2021/04/02 01:22:05;;;;;;;5.87;2.63;;;;;;;;;;4334116;33;20537;-67
2021/04/02 01:24:38;;;;;;;4.37;2.60;;;;;;;;;;4331311;33;20206;-67
2021/04/02 01:27:12;;;;;;;9.63;2.80;;;;;;;;;;4332531;33;20186;-67
2021/04/02 01:29:38;;;;;;;11.43;3.13;;;;;;;;;;4333365;33;20139;-67
2021/04/02 01:32:06;;;;;;;8.57;2.80;;;;;;;;;;4332669;33;20187;-67
2021/04/02 01:34:33;;;;;;;8.13;2.73;;;;;;;;;;4332809;33;20159;-67
2021/04/02 01:37:01;;;;;;;6.57;2.40;;;;;;;;;;4332312;33;20211;-67
2021/04/02 01:39:27;;;;;;;11.47;3.27;;;;;;;;;;4332762;33;20165;-68
2021/04/02 01:41:55;;;;;;;4.63;2.37;;;;;;;;;;4332535;33;20132;-68
2021/04/02 01:44:21;;;;;;;4.77;2.83;;;;;;;;;;4334065;33;20132;-67
2021/04/02 01:46:47;;;;;;;7.53;3.30;;;;;;;;;;4332477;33;20164;-67
2021/04/02 01:49:12;;;;;;;8.80;3.53;;;;;;;;;;4333510;33;20144;-68
2021/04/02 01:51:38;;;;;;;10.67;3.40;;;;;;;;;;4333108;33;20167;-67
2021/04/02 01:54:04;;;;;;;13.63;3.60;;;;;;;;;;4333954;33;20214;-67
2021/04/02 01:56:31;;;;;;;8.13;3.47;;;;;;;;;;4333564;33;20167;-67
2021/04/02 01:58:57;;;;;;;8.77;3.67;;;;;;;;;;4333096;33;20162;-68
2021/04/02 02:01:24;;;;;;;6.77;3.70;;;;;;;;;;4332260;33;20132;-67
2021/04/02 02:03:50;;;;;;;10.73;3.93;;;;;;;;;;4331260;33;20210;-68
2021/04/02 02:06:16;;;;;;;8.57;3.57;;;;;;;;;;4330685;33;20184;-69
2021/04/02 02:08:41;;;;;;;10.37;4.03;;;;;;;;;;4333323;33;20524;-67
2021/04/02 02:11:06;;;;;;;11.07;3.37;;;;;;;;;;4332199;33;20143;-67
2021/04/02 02:13:32;;;;;;;10.33;3.50;;;;;;;;;;4332208;33;20155;-68
2021/04/02 02:15:58;;;;;;;9.43;3.87;;;;;;;;;;4333369;33;20264;-67
2021/04/02 02:18:25;;;;;;;11.30;3.30;;;;;;;;;;4333537;33;20772;-67
2021/04/02 02:20:50;;;;;;;14.03;4.03;;;;;;;;;;4333765;33;20203;-67
2021/04/02 02:23:16;;;;;;;6.63;3.50;;;;;;;;;;4331993;33;20191;-67
2021/04/02 02:25:41;;;;;;;9.87;3.63;;;;;;;;;;4331567;33;20132;-67
2021/04/02 02:28:06;;;;;;;8.37;3.70;;;;;;;;;;4332549;33;20132;-68
2021/04/02 02:30:32;;;;;;;9.33;3.73;;;;;;;;;;4332943;33;20150;-68
2021/04/02 02:32:58;;;;;;;11.47;4.13;;;;;;;;;;4331928;33;20265;-67
2021/04/02 02:35:23;;;;;;;9.13;3.90;;;;;;;;;;4331445;33;20162;-68
2021/04/02 02:37:49;;;;;;;12.33;3.90;;;;;;;;;;4332821;33;20148;-67
2021/04/02 02:40:21;;;;;;;6.47;3.97;;;;;;;;;;4331420;33;20155;-68
2021/04/02 02:42:47;;;;;;;12.27;4.27;;;;;;;;;;4332034;33;20136;-67
2021/04/02 02:45:13;;;;;;;7.90;4.00;;;;;;;;;;4332725;33;20156;-67
2021/04/02 02:47:39;;;;;;;9.07;3.67;;;;;;;;;;4332503;33;20557;-67
2021/04/02 02:50:07;;;;;;;12.97;4.47;;;;;;;;;;4331931;33;20198;-67
2021/04/02 02:52:34;;;;;;;11.60;5.00;;;;;;;;;;4331433;33;20148;-67
2021/04/02 02:54:59;;;;;;;17.07;4.43;;;;;;;;;;4332604;33;20132;-67
2021/04/02 02:57:25;;;;;;;12.47;4.53;;;;;;;;;;4332053;33;20469;-69
2021/04/02 02:59:51;;;;;;;12.17;4.00;;;;;;;;;;4332975;33;20167;-67
2021/04/02 03:02:18;;;;;;;8.57;4.00;;;;;;;;;;4317959;33;20186;-68
2021/04/02 03:04:44;;;;;;;7.83;4.23;;;;;;;;;;4332988;33;20156;-67
2021/04/02 03:07:10;;;;;;;10.73;4.30;;;;;;;;;;4332850;33;20199;-67
2021/04/02 03:09:37;;;;;;;10.53;4.07;;;;;;;;;;4332852;33;20140;-68
2021/04/02 03:12:03;;;;;;;7.93;3.60;;;;;;;;;;4332909;33;20542;-66
2021/04/02 03:14:28;;;;;;;9.67;4.23;;;;;;;;;;4331250;33;20199;-67
2021/04/02 03:16:54;;;;;;;11.97;3.70;;;;;;;;;;4332666;33;20178;-68
2021/04/02 03:19:21;;;;;;;7.87;4.20;;;;;;;;;;4329468;33;20326;-66
2021/04/02 03:21:47;;;;;;;11.93;4.37;;;;;;;;;;4331943;33;20128;-67
2021/04/02 03:24:12;;;;;;;10.60;3.67;;;;;;;;;;4331759;33;20128;-66
2021/04/02 03:26:39;;;;;;;7.90;3.73;;;;;;;;;;4332619;33;20218;-68
2021/04/02 03:29:05;;;;;;;13.43;4.00;;;;;;;;;;4331509;33;20124;-68
2021/04/02 03:31:33;;;;;;;9.90;3.93;;;;;;;;;;4329712;33;20156;-67
2021/04/02 03:33:59;;;;;;;15.90;4.27;;;;;;;;;;4331149;33;20226;-67
2021/04/02 03:36:26;;;;;;;12.33;4.23;;;;;;;;;;4332087;33;20552;-67
2021/04/02 03:38:52;;;;;;;7.57;3.73;;;;;;;;;;4331659;33;20514;-68
2021/04/02 03:41:21;;;;;;;11.27;4.20;;;;;;;;;;4330114;33;20167;-66
2021/04/02 03:43:46;;;;;;;8.90;3.67;;;;;;;;;;4330569;33;20132;-66
2021/04/02 03:46:13;;;;;;;12.80;4.30;;;;;;;;;;4330263;33;20185;-68
2021/04/02 03:48:39;;;;;;;9.47;3.60;;;;;;;;;;4330833;33;20186;-67
2021/04/02 03:51:06;;;;;;;11.27;3.93;;;;;;;;;;4330853;33;20131;-67
2021/04/02 03:53:37;;;;;;;10.27;4.17;;;;;;;;;;4331246;33;20140;-66
2021/04/02 03:56:05;;;;;;;13.30;3.90;;;;;;;;;;4332272;33;20211;-66
2021/04/02 03:58:31;;;;;;;8.97;3.70;;;;;;;;;;4331786;33;20202;-66
2021/04/02 04:01:05;;;;;;;10.80;3.73;;;;;;;;;;4330889;33;20132;-68
2021/04/02 04:03:31;;;;;;;11.50;4.03;;;;;;;;;;4331823;33;20542;-67
2021/04/02 04:05:57;;;;;;;14.77;4.13;;;;;;;;;;4330658;33;20206;-67
2021/04/02 04:08:24;;;;;;;14.27;3.70;;;;;;;;;;4330097;33;20206;-67
2021/04/02 04:10:50;;;;;;;10.17;3.60;;;;;;;;;;4331152;33;20143;-66
2021/04/02 04:13:16;;;;;;;12.07;4.00;;;;;;;;;;4329823;33;20238;-67
2021/04/02 04:15:43;;;;;;;15.07;3.17;;;;;;;;;;4331880;33;20154;-66
2021/04/02 04:18:09;;;;;;;9.53;3.40;;;;;;;;;;4330531;33;20210;-68
2021/04/02 04:20:36;;;;;;;10.03;3.67;;;;;;;;;;4332093;33;20136;-67
2021/04/02 04:23:01;;;;;;;13.90;4.07;;;;;;;;;;4330593;33;20251;-66
2021/04/02 04:25:26;;;;;;;14.13;3.60;;;;;;;;;;4331962;33;20128;-67
2021/04/02 04:27:54;;;;;;;12.93;4.20;;;;;;;;;;4330675;33;20132;-67
2021/04/02 04:30:19;;;;;;;13.50;3.73;;;;;;;;;;4331195;33;20151;-65
2021/04/02 04:32:44;;;;;;;12.00;3.47;;;;;;;;;;4330515;33;20159;-68
2021/04/02 04:35:11;;;;;;;11.63;3.50;;;;;;;;;;4331177;33;20228;-67
2021/04/02 04:37:38;;;;;;;10.97;3.47;;;;;;;;;;4330587;33;20239;-67
2021/04/02 04:40:04;;;;;;;10.23;3.50;;;;;;;;;;4330308;33;20178;-67
2021/04/02 04:42:30;;;;;;;15.07;3.73;;;;;;;;;;4331007;33;20160;-67
2021/04/02 04:44:55;;;;;;;12.37;3.60;;;;;;;;;;4330279;33;20128;-66
2021/04/02 04:47:21;;;;;;;8.47;3.60;;;;;;;;;;4330308;33;20179;-68
2021/04/02 04:49:46;;;;;;;11.53;3.87;;;;;;;;;;4329911;33;20227;-66
2021/04/02 04:52:13;;;;;;;11.50;3.67;;;;;;;;;;4330936;33;20474;-68
2021/04/02 04:54:38;;;;;;;12.23;4.03;;;;;;;;;;4330585;33;20206;-67
2021/04/02 04:57:04;;;;;;;13.90;3.70;;;;;;;;;;4331950;33;20148;-65
2021/04/02 04:59:30;;;;;;;12.37;3.90;;;;;;;;;;4330198;33;20508;-69
2021/04/02 05:01:56;;;;;;;12.13;3.63;;;;;;;;;;4330474;33;20207;-67
2021/04/02 05:04:22;;;;;;;11.20;3.43;;;;;;;;;;4330259;33;20170;-66
2021/04/02 05:06:48;;;;;;;13.27;3.67;;;;;;;;;;4330041;33;20136;-67
2021/04/02 05:09:14;;;;;;;12.03;3.73;;;;;;;;;;4330108;33;20136;-68
2021/04/02 05:11:40;;;;;;;13.73;3.80;;;;;;;;;;4331757;33;20136;-65
2021/04/02 05:14:06;;;;;;;8.07;3.70;;;;;;;;;;4330268;33;20162;-67
2021/04/02 05:16:32;;;;;;;10.00;3.77;;;;;;;;;;4330270;33;20133;-66
2021/04/02 05:18:57;;;;;;;11.53;3.07;;;;;;;;;;4330640;33;20645;-67
2021/04/02 05:21:22;;;;;;;13.97;3.77;;;;;;;;;;4330243;33;20482;-66
2021/04/02 05:23:48;;;;;;;12.05;3.42;;;;;;;;;;4330961;33;20159;-67
2021/04/02 05:26:13;;;;;;;10.23;4.10;;;;;;;;;;4331729;33;20132;-67
2021/04/02 05:28:39;;;;;;;12.43;3.67;;;;;;;;;;4332569;33;20248;-68
2021/04/02 05:31:05;;;;;;;12.50;3.53;;;;;;;;;;4331790;33;20175;-67
2021/04/02 05:33:30;;;;;;;12.57;3.90;;;;;;;;;;4333578;33;20136;-66
2021/04/02 05:35:55;;;;;;;13.00;3.50;;;;;;;;;;4334115;33;20159;-67
2021/04/02 05:38:20;;;;;;;8.20;3.40;;;;;;;;;;4332357;33;20191;-67
2021/04/02 05:40:45;;;;;;;14.30;3.33;;;;;;;;;;4332416;33;20568;-68
2021/04/02 05:43:12;;;;;;;11.33;3.60;;;;;;;;;;4331910;33;20195;-66
2021/04/02 05:45:38;;;;;;;9.87;3.47;;;;;;;;;;4331868;33;20174;-68
2021/04/02 05:48:04;;;;;;;12.83;3.70;;;;;;;;;;4331810;33;20168;-67
2021/04/02 05:50:31;;;;;;;7.17;3.37;;;;;;;;;;4333471;33;20203;-66
2021/04/02 05:52:58;;;;;;;14.43;3.57;;;;;;;;;;4331986;33;20604;-66
2021/04/02 05:55:24;;;;;;;9.63;3.53;;;;;;;;;;4326062;33;20152;-68
2021/04/02 05:57:50;;;;;;;9.00;3.07;;;;;;;;;;4328532;33;20148;-68
2021/04/02 06:00:15;;;;;;;10.93;2.93;;;;;;;;;;4328076;33;20144;-67
2021/04/02 06:02:41;;;;;;;10.43;3.20;;;;;;;;;;4322243;33;20645;-66
2021/04/02 06:05:09;;;;;;;10.63;3.40;;;;;;;;;;4321600;33;20160;-67
2021/04/02 06:07:38;;;;;;;13.73;3.80;;;;;;;;;;4323347;33;20247;-66
2021/04/02 06:10:04;;;;;;;14.93;3.70;;;;;;;;;;4325659;33;20152;-68
2021/04/02 06:12:30;;;;;;;18.60;3.63;;;;;;;;;;4323252;33;20577;-67
2021/04/02 06:14:55;;;;;;;11.03;3.50;;;;;;;;;;4316449;33;20191;-66
2021/04/02 06:17:20;;;;;;;14.70;3.33;;;;;;;;;;4324651;33;20140;-68
2021/04/02 06:20:01;;;;;;;13.13;4.33;;;;;;;;;;4324701;33;20577;-67
2021/04/02 06:22:26;;;;;;;9.20;3.20;;;;;;;;;;4326837;33;20286;-67
2021/04/02 06:24:52;;;;;;;11.00;2.93;;;;;;;;;;4331247;33;20639;-67
2021/04/02 06:27:17;;;;;;;13.33;3.20;;;;;;;;;;4332383;33;20171;-68
2021/04/02 06:29:43;;;;;;;7.57;2.80;;;;;;;;;;4326366;33;20546;-67
2021/04/02 06:32:12;;;;;;;9.57;3.30;;;;;;;;;;4332066;33;20178;-65
2021/04/02 06:34:45;;;;;;;8.33;3.00;;;;;;;;;;4325953;33;20225;-64
2021/04/02 06:37:10;;;;;;;7.53;3.00;;;;;;;;;;4322859;33;20318;-67
2021/04/02 06:39:35;;;;;;;12.80;2.70;;;;;;;;;;4328473;33;20144;-64
2021/04/02 06:42:01;;;;;;;7.10;2.83;;;;;;;;;;4329045;33;20513;-69
2021/04/02 06:44:33;;;;;;;7.27;3.10;;;;;;;;;;4327923;33;20502;-65
2021/04/02 06:46:58;;;;;;;7.83;2.50;;;;;;;;;;4327997;33;20218;-69
2021/04/02 06:49:24;;;;;;;14.80;3.27;;;;;;;;;;4328056;33;20163;-69
2021/04/02 06:51:50;;;;;;;8.00;2.70;;;;;;;;;;4327931;33;20152;-64
2021/04/02 06:54:17;;;;;;;8.90;2.77;;;;;;;;;;4329813;33;20719;-67
2021/04/02 06:56:44;;;;;;;11.13;2.70;;;;;;;;;;4329937;33;20198;-67
2021/04/02 06:59:13;;;;;;;12.03;3.10;;;;;;;;;;4330706;33;20152;-66
2021/04/02 07:01:38;;;;;;;9.60;2.47;;;;;;;;;;4330829;33;20194;-65
2021/04/02 07:04:03;;;;;;;9.07;2.33;;;;;;;;;;4332261;33;20128;-66
2021/04/02 07:06:30;;;;;;;5.97;2.43;;;;;;;;;;4331514;33;20570;-67
2021/04/02 07:08:55;;;;;;;7.77;2.43;;;;;;;;;;4330796;33;20202;-66
2021/04/02 07:11:21;;;;;;;11.33;2.40;;;;;;;;;;4330803;33;20230;-65
2021/04/02 07:13:51;;;;;;;7.60;2.30;;;;;;;;;;4331656;33;20491;-66
2021/04/02 07:16:17;;;;;;;7.07;2.17;;;;;;;;;;4332378;33;20166;-67
2021/04/02 07:18:42;;;;;;;9.20;2.47;;;;;;;;;;4330086;33;20144;-64
2021/04/02 07:21:07;;;;;;;12.50;2.30;;;;;;;;;;4330104;33;20176;-67
2021/04/02 07:23:33;;;;;;;12.40;2.80;;;;;;;;;;4331011;33;20144;-64
2021/04/02 07:25:59;;;;;;;10.30;2.40;;;;;;;;;;4330863;33;20166;-65
2021/04/02 07:28:24;;;;;;;6.83;2.07;;;;;;;;;;4330686;33;20204;-66
2021/04/02 07:30:51;;;;;;;5.77;2.43;;;;;;;;;;4329053;33;20183;-71
2021/04/02 07:33:16;;;;;;;15.80;2.90;;;;;;;;;;4331727;33;20151;-65
2021/04/02 07:35:54;;;;;;;8.80;2.50;;;;;;;;;;4323013;33;20198;-66
2021/04/02 07:38:23;;;;;;;7.20;2.20;;;;;;;;;;4330624;33;20585;-63
2021/04/02 07:40:49;;;;;;;9.00;2.47;;;;;;;;;;4330393;33;20159;-67
2021/04/02 07:43:14;;;;;;;9.30;2.30;;;;;;;;;;4330058;33;20259;-64
2021/04/02 07:45:39;;;;;;;9.80;2.20;;;;;;;;;;4330448;33;20604;-67
2021/04/02 07:48:15;;;;;;;10.27;2.70;;;;;;;;;;4329616;33;20168;-65
2021/04/02 07:50:40;;;;;;;4.47;1.83;;;;;;;;;;4330141;33;20182;-66
2021/04/02 07:53:11;;;;;;;7.53;2.10;;;;;;;;;;4325845;33;20185;-65
2021/04/02 07:55:36;;;;;;;10.87;2.67;;;;;;;;;;4330192;33;20255;-66
2021/04/02 07:58:04;;;;;;;12.40;2.30;;;;;;;;;;4331368;33;20147;-65
2021/04/02 08:00:32;;;;;;;9.60;2.10;;;;;;;;;;4327862;33;20199;-66
2021/04/02 08:03:07;;;;;;;8.43;2.17;;;;;;;;;;4325504;33;20270;-67
2021/04/02 08:05:32;;;;;;;8.90;2.53;;;;;;;;;;4328537;33;20570;-64
2021/04/02 08:07:57;;;;;;;8.13;2.23;;;;;;;;;;4330208;33;20171;-64
2021/04/02 08:10:26;;;;;;;6.03;2.20;;;;;;;;;;4330666;33;20518;-65
2021/04/02 08:12:52;;;;;;;7.73;2.30;;;;;;;;;;4329978;33;20476;-65
2021/04/02 08:15:19;;;;;;;6.73;2.60;;;;;;;;;;4331463;33;20158;-66
2021/04/02 08:17:46;;;;;;;13.93;2.83;;;;;;;;;;4329576;33;20166;-67
2021/04/02 08:20:18;;;;;;;10.30;2.60;;;;;;;;;;4330199;33;20645;-66
2021/04/02 08:22:44;;;;;;;11.47;3.00;;;;;;;;;;4322757;33;20223;-65
2021/04/02 08:25:10;;;;;;;13.30;2.90;;;;;;;;;;4315194;33;20514;-64
2021/04/02 08:27:36;;;;;;;10.33;2.80;;;;;;;;;;4318084;33;21251;-64
2021/04/02 08:30:04;;;;;;;13.40;3.27;;;;;;;;;;4330128;33;20124;-67
2021/04/02 08:32:36;;;;;;;8.67;2.83;;;;;;;;;;4327901;33;20151;-65
2021/04/02 08:35:02;;;;;;;9.57;3.33;;;;;;;;;;4330732;33;20144;-64
2021/04/02 08:37:29;;;;;;;8.73;2.60;;;;;;;;;;4329840;33;20203;-62
2021/04/02 08:39:56;;;;;;;4.87;2.00;;;;;;;;;;4330661;33;20171;-64
2021/04/02 08:42:21;;;;;;;9.80;2.50;;;;;;;;;;4331465;33;20579;-66
2021/04/02 08:44:47;;;;;;;7.50;2.17;;;;;;;;;;4330667;33;20128;-65
2021/04/02 08:47:13;;;;;;;16.13;2.47;;;;;;;;;;4329730;33;20148;-65
2021/04/02 08:49:42;;;;;;;10.23;2.77;;;;;;;;;;4331571;33;20163;-65
2021/04/02 08:52:12;;;;;;;14.30;2.90;;;;;;;;;;4326051;33;20584;-63
2021/04/02 08:54:38;;;;;;;10.93;2.60;;;;;;;;;;4329176;33;20565;-65
2021/04/02 08:57:04;;;;;;;9.80;2.30;;;;;;;;;;4329579;33;20154;-67
2021/04/02 08:59:30;;;;;;;10.43;2.50;;;;;;;;;;4331152;33;20156;-65
2021/04/02 09:01:56;;;;;;;6.40;1.93;;;;;;;;;;4331890;33;20148;-65
2021/04/02 09:04:22;;;;;;;7.00;2.17;;;;;;;;;;4331883;33;20162;-64
2021/04/02 09:06:47;;;;;;;8.53;3.13;;;;;;;;;;4332343;33;20462;-65
2021/04/02 09:09:14;;;;;;;9.17;2.40;;;;;;;;;;4332160;33;20222;-65
2021/04/02 09:11:39;;;;;;;9.80;2.60;;;;;;;;;;4332344;33;20167;-65
2021/04/02 09:14:07;;;;;;;10.87;3.30;;;;;;;;;;4332403;33;20174;-63
2021/04/02 09:16:35;;;;;;;7.80;2.40;;;;;;;;;;4332761;33;20534;-68
2021/04/02 09:19:00;;;;;;;7.80;3.10;;;;;;;;;;4332331;33;20177;-65
2021/04/02 09:21:26;;;;;;;11.73;3.57;;;;;;;;;;4332321;33;20533;-64
2021/04/02 09:23:52;;;;;;;12.83;3.50;;;;;;;;;;4332510;33;20269;-67
2021/04/02 09:26:18;;;;;;;10.17;3.37;;;;;;;;;;4330931;33;20164;-66
2021/04/02 09:28:43;;;;;;;10.80;3.07;;;;;;;;;;4332444;33;20136;-65
2021/04/02 09:31:28;;;;;;;9.33;3.40;;;;;;;;;;4331951;33;20148;-64
2021/04/02 09:33:57;;;;;;;11.77;2.97;;;;;;;;;;4332856;33;20286;-63
2021/04/02 09:36:25;;;;;;;11.00;3.20;;;;;;;;;;4331772;33;20226;-66
2021/04/02 09:38:50;;;;;;;7.97;2.83;;;;;;;;;;4331900;33;20174;-65
2021/04/02 09:41:23;;;;;;;7.40;2.10;;;;;;;;;;4329755;33;20152;-65
2021/04/02 09:43:52;;;;;;;11.63;2.20;;;;;;;;;;4331353;33;20135;-67
2021/04/02 09:46:26;;;;;;;7.47;2.30;;;;;;;;;;4330947;33;20182;-65
2021/04/02 09:48:52;;;;;;;7.27;2.10;;;;;;;;;;4332316;33;20239;-67
2021/04/02 09:51:17;;;;;;;10.77;2.97;;;;;;;;;;4330440;33;20218;-64
2021/04/02 09:53:42;;;;;;;13.97;2.50;;;;;;;;;;4331488;33;20465;-69
2021/04/02 09:56:07;;;;;;;7.43;2.20;;;;;;;;;;4326944;33;20265;-63
2021/04/02 09:58:32;;;;;;;8.50;2.13;;;;;;;;;;4324461;33;20199;-63
2021/04/02 10:00:57;;;;;;;9.00;2.50;;;;;;;;;;4331482;33;20592;-66
2021/04/02 10:03:25;;;;;;;9.97;2.43;;;;;;;;;;4331999;33;20132;-67
2021/04/02 10:05:50;;;;;;;9.77;2.93;;;;;;;;;;4330223;33;20324;-67
2021/04/02 10:08:15;;;;;;;14.27;3.47;;;;;;;;;;4332763;33;20446;-67
2021/04/02 10:10:40;;;;;;;11.10;3.57;;;;;;;;;;4331449;33;20160;-66
2021/04/02 10:13:06;;;;;;;14.27;3.37;;;;;;;;;;4331138;33;20174;-69
2021/04/02 10:15:31;;;;;;;7.63;3.43;;;;;;;;;;4332221;33;20124;-67
2021/04/02 10:17:56;;;;;;;7.07;3.20;;;;;;;;;;4332922;33;20131;-66
2021/04/02 10:20:21;;;;;;;10.07;4.37;;;;;;;;;;4330029;33;20167;-64
2021/04/02 10:22:47;;;;;;;13.88;4.10;;;;;;;;;;4332806;33;20490;-64
2021/04/02 10:25:12;;;;;;;8.77;3.63;;;;;;;;;;4331741;33;20158;-63
2021/04/02 10:27:37;;;;;;;12.07;4.23;;;;;;;;;;4331926;33;20136;-64
2021/04/02 10:30:04;;;;;;;12.57;4.00;;;;;;;;;;4331138;33;20186;-67
2021/04/02 10:32:29;;;;;;;12.57;4.82;;;;;;;;;;4331099;33;20140;-66
2021/04/02 10:34:54;;;;;;;10.43;4.57;;;;;;;;;;4329116;33;20222;-64
2021/04/02 10:37:19;;;;;;;14.13;4.37;;;;;;;;;;4330900;33;20144;-65
2021/04/02 10:39:45;;;;;;;11.93;4.23;;;;;;;;;;4329847;33;20136;-66
2021/04/02 10:42:10;;;;;;;9.53;4.10;;;;;;;;;;4330148;33;20596;-63
2021/04/02 10:44:35;;;;;;;9.52;3.67;;;;;;;;;;4330717;33;20163;-68
2021/04/02 10:47:00;;;;;;;12.45;3.17;;;;;;;;;;4331407;33;20170;-67
2021/04/02 10:49:26;;;;;;;12.75;3.33;;;;;;;;;;4330843;33;20154;-65
2021/04/02 10:51:51;;;;;;;10.02;3.22;;;;;;;;;;4331049;33;20588;-66
2021/04/02 10:54:16;;;;;;;9.73;2.90;;;;;;;;;;4331366;33;20259;-65
2021/04/02 10:56:41;;;;;;;9.05;2.80;;;;;;;;;;4330870;33;20132;-66
2021/04/02 10:59:06;;;;;;;11.12;3.28;;;;;;;;;;4332257;33;20225;-64
2021/04/02 11:01:31;;;;;;;7.27;3.00;;;;;;;;;;4330701;33;20227;-67
2021/04/02 11:03:57;;;;;;;10.03;2.63;;;;;;;;;;4331756;33;20242;-68
2021/04/02 11:06:22;;;;;;;9.73;3.08;;;;;;;;;;4328550;33;20149;-68
2021/04/02 11:08:47;;;;;;;10.17;2.80;;;;;;;;;;4330778;33;20140;-69
2021/04/02 11:11:13;;;;;;;9.80;3.08;;;;;;;;;;4330633;33;20132;-66
2021/04/02 11:13:38;;;;;;;9.82;2.80;;;;;;;;;;4329306;33;20191;-67
2021/04/02 11:16:03;;;;;;;5.10;2.40;;;;;;;;;;4328983;33;20486;-65
2021/04/02 11:18:28;;;;;;;9.27;2.75;;;;;;;;;;4329954;33;20160;-66
2021/04/02 11:20:53;;;;;;;10.97;3.57;;;;;;;;;;4332071;33;20144;-67
2021/04/02 11:23:19;;;;;;;6.70;2.28;;;;;;;;;;4330599;33;20295;-67
2021/04/02 11:25:45;;;;;;;13.90;2.97;;;;;;;;;;4325997;33;20197;-66
2021/04/02 11:28:10;;;;;;;7.65;2.50;;;;;;;;;;4303301;33;20214;-63
2021/04/02 11:30:35;;;;;;;10.23;2.70;;;;;;;;;;4329259;33;20184;-64
2021/04/02 11:33:00;;;;;;;11.00;1.97;;;;;;;;;;4330442;33;20171;-66
2021/04/02 11:35:26;;;;;;;8.23;2.10;;;;;;;;;;4329721;33;20158;-66
2021/04/02 11:37:51;;;;;;;8.25;2.42;;;;;;;;;;4328721;33;20496;-64
2021/04/02 11:40:16;;;;;;;12.35;2.70;;;;;;;;;;4329465;33;20215;-66
2021/04/02 11:42:42;;;;;;;7.97;2.20;;;;;;;;;;4330839;33;20218;-68
2021/04/02 11:45:08;;;;;;;8.35;2.97;;;;;;;;;;4328239;33;20229;-64
2021/04/02 11:47:33;;;;;;;12.00;2.50;;;;;;;;;;4331363;33;20144;-65
2021/04/02 11:49:58;;;;;;;11.63;2.53;;;;;;;;;;4330188;33;20230;-65
2021/04/02 11:52:24;;;;;;;10.83;3.00;;;;;;;;;;4329591;33;20174;-65
2021/04/02 11:54:49;;;;;;;9.90;3.00;;;;;;;;;;4331482;33;20147;-67
2021/04/02 11:57:14;;;;;;;9.98;2.92;;;;;;;;;;4331787;33;20131;-65
2021/04/02 11:59:40;;;;;;;10.85;2.78;;;;;;;;;;4329985;33;20155;-66
2021/04/02 12:02:05;;;;;;;8.50;2.28;;;;;;;;;;4329616;33;20428;-64
2021/04/02 12:04:30;;;;;;;5.80;2.28;;;;;;;;;;4329856;33;20195;-67
2021/04/02 12:06:55;;;;;;;8.00;2.90;;;;;;;;;;4330073;33;20225;-64
2021/04/02 12:09:20;;;;;;;12.27;2.60;;;;;;;;;;4330658;33;20167;-65
2021/04/02 12:11:46;;;;;;;10.48;2.70;;;;;;;;;;4328594;33;20291;-64
2021/04/02 12:14:11;;;;;;;8.13;2.65;;;;;;;;;;4329714;33;20166;-64
2021/04/02 12:16:36;;;;;;;6.10;2.30;;;;;;;;;;4329718;33;20199;-63
2021/04/02 12:19:03;;;;;;;10.15;2.58;;;;;;;;;;4329925;33;20128;-64
2021/04/02 12:21:28;;;;;;;11.55;3.00;;;;;;;;;;4329785;33;20136;-67
2021/04/02 12:23:53;;;;;;;9.68;2.83;;;;;;;;;;4330379;33;20154;-65
2021/04/02 12:26:18;;;;;;;7.97;2.80;;;;;;;;;;4323932;33;20151;-66
2021/04/02 12:28:44;;;;;;;10.63;2.90;;;;;;;;;;4327693;33;20252;-64
2021/04/02 12:31:09;;;;;;;12.88;4.30;;;;;;;;;;4326609;33;20176;-64
2021/04/02 12:33:34;;;;;;;7.47;3.17;;;;;;;;;;4330644;33;20523;-67
2021/04/02 12:35:59;;;;;;;15.27;3.62;;;;;;;;;;4333099;33;20131;-66
2021/04/02 12:38:26;;;;;;;14.85;3.87;;;;;;;;;;4332096;33;20132;-64
2021/04/02 12:40:51;;;;;;;10.98;3.42;;;;;;;;;;4333226;33;20132;-64
2021/04/02 12:43:16;;;;;;;12.55;2.58;;;;;;;;;;4331791;33;20151;-65
2021/04/02 12:45:42;;;;;;;14.05;3.10;;;;;;;;;;4320056;33;20531;-66
2021/04/02 12:48:07;;;;;;;14.07;2.80;;;;;;;;;;4329625;33;20203;-66
2021/04/02 12:50:33;;;;;;;11.50;2.80;;;;;;;;;;4332199;33;20151;-64
2021/04/02 12:52:58;;;;;;;11.15;2.83;;;;;;;;;;4332685;33;20166;-65
2021/04/02 12:55:24;;;;;;;9.57;2.75;;;;;;;;;;4331847;33;20160;-65
2021/04/02 12:57:50;;;;;;;7.75;2.53;;;;;;;;;;4329734;33;20144;-65
2021/04/02 13:00:17;;;;;;;8.33;2.80;;;;;;;;;;4332099;33;20166;-65
2021/04/02 13:02:42;;;;;;;12.45;2.50;;;;;;;;;;4331905;33;20263;-67
2021/04/02 13:05:08;;;;;;;11.18;2.92;;;;;;;;;;4333573;33;20132;-67
2021/04/02 13:07:33;;;;;;;7.95;2.47;;;;;;;;;;4331104;33;20164;-64
2021/04/02 13:09:58;;;;;;;7.30;3.03;;;;;;;;;;4331367;33;20159;-66
2021/04/02 13:12:23;;;;;;;10.90;2.72;;;;;;;;;;4332561;33;20162;-65
2021/04/02 13:14:49;;;;;;;8.80;2.47;;;;;;;;;;4331223;33;20217;-65
2021/04/02 13:17:14;;;;;;;11.37;3.10;;;;;;;;;;4332985;33;20163;-63
2021/04/02 13:19:39;;;;;;;16.60;3.10;;;;;;;;;;4331460;33;20140;-66
2021/04/02 13:22:05;;;;;;;11.07;2.70;;;;;;;;;;4332748;33;20572;-68
2021/04/02 13:24:30;;;;;;;12.60;3.30;;;;;;;;;;4330228;33;20495;-66
2021/04/02 13:26:55;;;;;;;15.57;3.57;;;;;;;;;;4331558;33;20137;-65
2021/04/02 13:29:21;;;;;;;14.40;3.47;;;;;;;;;;4330614;33;20549;-67
2021/04/02 13:31:46;;;;;;;12.93;3.20;;;;;;;;;;4331748;33;20144;-65
2021/04/02 13:34:11;;;;;;;13.33;3.63;;;;;;;;;;4332993;33;20502;-67
2021/04/02 13:36:36;;;;;;;7.17;2.70;;;;;;;;;;4330288;33;20144;-68
2021/04/02 13:39:02;;;;;;;14.50;3.13;;;;;;;;;;4332579;33;20267;-64
2021/04/02 13:41:28;;;;;;;9.25;2.78;;;;;;;;;;4331794;33;20159;-67
2021/04/02 13:43:53;;;;;;;11.80;2.90;;;;;;;;;;4331923;33;20158;-68
2021/04/02 13:46:18;;;;;;;8.95;2.60;;;;;;;;;;4330777;33;20299;-64
2021/04/02 13:48:43;;;;;;;11.50;3.07;;;;;;;;;;4332681;33;20682;-63
2021/04/02 13:51:08;;;;;;;11.53;2.73;;;;;;;;;;4332360;33;20171;-66
2021/04/02 13:53:34;;;;;;;13.20;2.90;;;;;;;;;;4331594;33;20132;-66
2021/04/02 13:55:59;;;;;;;9.23;2.50;;;;;;;;;;4332703;33;20228;-67
2021/04/02 13:58:24;;;;;;;9.83;3.10;;;;;;;;;;4332715;33;20128;-66
2021/04/02 14:00:49;;;;;;;7.27;3.07;;;;;;;;;;4332490;33;20537;-66
2021/04/02 14:03:14;;;;;;;12.20;2.95;;;;;;;;;;4332373;33;20132;-64
2021/04/02 14:05:40;;;;;;;12.73;3.03;;;;;;;;;;4331088;33;20208;-65
2021/04/02 14:08:05;;;;;;;8.40;2.73;;;;;;;;;;4331830;33;20171;-64
2021/04/02 14:10:34;;;;;;;10.20;2.60;;;;;;;;;;4332315;33;20158;-68
2021/04/02 14:12:59;;;;;;;8.73;2.63;;;;;;;;;;4332177;33;20171;-66
2021/04/02 14:15:25;;;;;;;10.47;2.37;;;;;;;;;;4331004;33;20190;-66
2021/04/02 14:17:50;;;;;;;10.87;2.47;;;;;;;;;;4332513;33;20552;-63
2021/04/02 14:20:17;;;;;;;10.37;2.40;;;;;;;;;;4331119;33;20128;-67
2021/04/02 14:22:42;;;;;;;10.03;2.77;;;;;;;;;;4331258;33;20674;-64
2021/04/02 14:25:08;;;;;;;10.47;2.50;;;;;;;;;;4331212;33;20227;-65
2021/04/02 14:27:34;;;;;;;10.50;2.30;;;;;;;;;;4332446;33;20144;-66
2021/04/02 14:29:59;;;;;;;6.97;2.07;;;;;;;;;;4332434;33;20170;-63